createdAt,value
2022-12-03T00:00:17.819Z,17.80
2022-12-03T00:02:44.271Z,16.97
2022-12-03T00:05:10.783Z,19.10
2022-12-03T00:07:37.558Z,18.37
2022-12-03T00:10:05.306Z,16.83
2022-12-03T00:12:31.651Z,17.30
2022-12-03T00:14:58.248Z,18.60
2022-12-03T00:17:24.736Z,17.00
2022-12-03T00:19:51.079Z,18.00
2022-12-03T00:22:17.371Z,17.50
2022-12-03T00:24:43.689Z,18.47
2022-12-03T00:27:10.017Z,18.57
2022-12-03T00:29:38.147Z,17.63
2022-12-03T00:32:04.620Z,17.23
2022-12-03T00:34:31.064Z,19.60
2022-12-03T00:36:57.392Z,17.00
2022-12-03T00:39:23.712Z,17.63
2022-12-03T00:41:50.057Z,17.97
2022-12-03T00:44:17.578Z,18.43
2022-12-03T00:46:43.995Z,17.03
2022-12-03T00:49:15.376Z,16.97
2022-12-03T00:51:41.705Z,19.33
2022-12-03T00:54:08.245Z,17.93
2022-12-03T00:56:34.610Z,17.43
2022-12-03T00:59:00.940Z,18.43
2022-12-03T01:01:27.271Z,18.00
2022-12-03T01:03:53.635Z,17.37
2022-12-03T01:06:20.272Z,16.37
2022-12-03T01:08:46.611Z,19.23
2022-12-03T01:11:31.482Z,17.80
2022-12-03T01:13:58.224Z,17.57
2022-12-03T01:16:24.589Z,18.70
2022-12-03T01:18:52.685Z,19.03
2022-12-03T01:21:19.586Z,19.83
2022-12-03T01:23:46.203Z,17.73
2022-12-03T01:26:12.523Z,17.73
2022-12-03T01:28:38.867Z,19.13
2022-12-03T01:31:23.654Z,18.70
2022-12-03T01:33:50.049Z,18.53
2022-12-03T01:36:16.339Z,21.77
2022-12-03T01:38:43.740Z,19.37
2022-12-03T01:41:11.831Z,18.97
2022-12-03T01:43:38.686Z,19.00
2022-12-03T01:46:05.217Z,19.30
2022-12-03T01:48:35.543Z,20.07
2022-12-03T01:51:02.021Z,18.37
2022-12-03T01:53:28.359Z,19.07
2022-12-03T01:55:54.752Z,18.93
2022-12-03T01:58:25.600Z,20.27
2022-12-03T02:00:51.934Z,18.10
2022-12-03T02:03:23.201Z,17.83
2022-12-03T02:05:50.177Z,18.67
2022-12-03T02:08:34.520Z,19.23
2022-12-03T02:11:09.320Z,18.63
2022-12-03T02:13:36.299Z,18.87
2022-12-03T02:16:04.257Z,18.63
2022-12-03T02:18:30.627Z,17.37
2022-12-03T02:21:18.501Z,17.87
2022-12-03T02:24:10.187Z,17.03
2022-12-03T02:26:36.547Z,18.57
2022-12-03T02:29:03.919Z,18.73
2022-12-03T02:31:30.280Z,19.07
2022-12-03T02:33:56.714Z,17.53
2022-12-03T02:36:23.252Z,18.90
2022-12-03T02:38:50.812Z,18.37
2022-12-03T02:41:38.764Z,18.40
2022-12-03T02:44:06.826Z,17.27
2022-12-03T02:46:33.979Z,18.10
2022-12-03T02:49:01.746Z,17.47
2022-12-03T02:51:28.138Z,17.43
2022-12-03T02:53:55.871Z,16.50
2022-12-03T02:56:26.781Z,17.50
2022-12-03T02:58:56.886Z,18.07
2022-12-03T03:01:23.311Z,18.43
2022-12-03T03:03:51.486Z,17.33
2022-12-03T03:06:19.215Z,17.30
2022-12-03T03:08:46.487Z,17.97
2022-12-03T03:11:12.996Z,18.37
2022-12-03T03:13:39.639Z,17.80
2022-12-03T03:16:07.590Z,17.77
2022-12-03T03:18:34.959Z,18.17
2022-12-03T03:21:01.792Z,18.33
2022-12-03T03:23:28.305Z,18.03
2022-12-03T03:26:14.202Z,18.43
2022-12-03T03:28:45.476Z,17.37
2022-12-03T03:31:15.986Z,17.27
2022-12-03T03:33:45.190Z,17.40
2022-12-03T03:36:13.063Z,18.93
2022-12-03T03:38:41.108Z,17.93
2022-12-03T03:41:09.472Z,16.97
2022-12-03T03:43:38.123Z,17.80
2022-12-03T03:46:06.396Z,18.33
2022-12-03T03:48:34.748Z,17.57
2022-12-03T03:51:03.581Z,17.20
2022-12-03T03:53:30.824Z,18.57
2022-12-03T03:55:57.181Z,17.57
2022-12-03T03:58:23.687Z,16.40
2022-12-03T04:00:50.107Z,17.17
2022-12-03T04:03:17.084Z,17.77
2022-12-03T04:05:43.420Z,16.67
2022-12-03T04:08:09.787Z,17.93
2022-12-03T04:10:54.608Z,17.23
2022-12-03T04:13:20.931Z,15.73
2022-12-03T04:15:47.455Z,17.17
2022-12-03T04:18:32.497Z,17.87
2022-12-03T04:21:18.795Z,16.50
2022-12-03T04:23:45.157Z,16.07
2022-12-03T04:26:30.076Z,16.97
2022-12-03T04:28:56.465Z,16.37
2022-12-03T04:31:41.149Z,17.53
2022-12-03T04:34:27.752Z,18.03
2022-12-03T04:36:54.861Z,16.93
2022-12-03T04:39:21.206Z,16.87
2022-12-03T04:41:47.519Z,16.70
2022-12-03T04:44:32.423Z,16.80
2022-12-03T04:47:01.942Z,15.90
2022-12-03T04:49:28.536Z,17.13
2022-12-03T04:51:54.855Z,17.37
2022-12-03T04:54:21.188Z,17.97
2022-12-03T04:56:47.492Z,19.20
2022-12-03T04:59:16.577Z,17.80
2022-12-03T05:01:43.865Z,18.30
2022-12-03T05:04:10.770Z,17.73
2022-12-03T05:06:37.149Z,18.17
2022-12-03T05:09:03.623Z,19.93
2022-12-03T05:11:30.135Z,18.27
2022-12-03T05:13:56.617Z,16.77
2022-12-03T05:16:23.013Z,17.87
2022-12-03T05:18:49.382Z,17.23
2022-12-03T05:21:15.858Z,18.20
2022-12-03T05:23:42.566Z,18.30
2022-12-03T05:26:08.917Z,17.97
2022-12-03T05:28:35.332Z,17.43
2022-12-03T05:31:01.720Z,17.77
2022-12-03T05:33:28.192Z,17.70
2022-12-03T05:35:54.566Z,16.87
2022-12-03T05:38:20.872Z,17.43
2022-12-03T05:40:47.188Z,16.80
2022-12-03T05:43:13.620Z,16.23
2022-12-03T05:45:41.409Z,17.10
2022-12-03T05:48:13.815Z,16.90
2022-12-03T05:50:43.839Z,15.93
2022-12-03T05:53:17.163Z,17.00
2022-12-03T05:55:43.687Z,17.57
2022-12-03T05:58:10.162Z,16.63
2022-12-03T06:00:42.430Z,18.17
2022-12-03T06:03:09.991Z,17.53
2022-12-03T06:05:36.459Z,18.50
2022-12-03T06:08:02.859Z,17.47
2022-12-03T06:10:29.670Z,16.83
2022-12-03T06:12:56.309Z,17.37
2022-12-03T06:15:23.064Z,16.67
2022-12-03T06:17:49.536Z,17.87
2022-12-03T06:20:18.298Z,17.83
2022-12-03T06:22:44.908Z,17.30
2022-12-03T06:25:12.156Z,17.17
2022-12-03T06:27:38.551Z,16.80
2022-12-03T06:30:06.757Z,18.43
2022-12-03T06:32:33.166Z,17.83
2022-12-03T06:34:59.494Z,18.20
2022-12-03T06:37:25.832Z,17.10
2022-12-03T06:39:52.140Z,17.50
2022-12-03T06:42:18.571Z,15.90
2022-12-03T06:44:44.871Z,18.90
2022-12-03T06:47:11.174Z,17.23
2022-12-03T06:49:37.485Z,17.37
2022-12-03T06:52:05.309Z,16.87
2022-12-03T06:54:31.651Z,17.43
2022-12-03T06:56:57.984Z,18.20
2022-12-03T06:59:24.321Z,16.93
2022-12-03T07:01:50.641Z,17.83
2022-12-03T07:04:17.010Z,16.10
2022-12-03T07:06:43.675Z,17.00
2022-12-03T07:09:10.018Z,17.07
2022-12-03T07:11:40.260Z,17.57
2022-12-03T07:14:08.236Z,15.53
2022-12-03T07:16:35.824Z,17.53
2022-12-03T07:19:03.387Z,18.20
2022-12-03T07:21:29.711Z,16.57
2022-12-03T07:23:56.104Z,16.57
2022-12-03T07:26:22.443Z,17.53
2022-12-03T07:28:48.763Z,16.40
2022-12-03T07:31:16.201Z,17.63
2022-12-03T07:33:42.715Z,16.73
2022-12-03T07:36:09.651Z,17.10
2022-12-03T07:38:36.120Z,16.00
2022-12-03T07:41:02.462Z,17.70
2022-12-03T07:43:28.785Z,17.97
2022-12-03T07:45:55.094Z,17.07
2022-12-03T07:48:21.403Z,16.17
2022-12-03T07:50:47.786Z,15.63
2022-12-03T07:53:15.056Z,18.10
2022-12-03T07:55:41.380Z,17.07
2022-12-03T07:58:08.920Z,17.83
2022-12-03T08:00:35.291Z,17.07
2022-12-03T08:03:01.670Z,17.63
2022-12-03T08:05:29.474Z,16.63
2022-12-03T08:07:55.980Z,17.27
2022-12-03T08:10:25.125Z,18.53
2022-12-03T08:12:51.573Z,18.97
2022-12-03T08:15:20.366Z,18.70
2022-12-03T08:17:53.515Z,17.53
2022-12-03T08:20:22.200Z,16.87
2022-12-03T08:22:51.227Z,16.80
2022-12-03T08:25:28.459Z,18.33
2022-12-03T08:28:12.632Z,17.33
2022-12-03T08:30:40.015Z,16.77
2022-12-03T08:33:28.259Z,17.60
2022-12-03T08:35:54.898Z,18.33
2022-12-03T08:38:23.844Z,16.87
2022-12-03T08:40:52.457Z,17.77
2022-12-03T08:43:25.946Z,18.10
2022-12-03T08:45:54.516Z,17.57
2022-12-03T08:48:36.739Z,17.03
2022-12-03T08:51:21.466Z,16.30
2022-12-03T08:53:51.938Z,16.63
2022-12-03T08:56:25.104Z,17.47
2022-12-03T08:58:54.137Z,18.37
2022-12-03T09:01:30.797Z,18.73
2022-12-03T09:04:13.459Z,18.23
2022-12-03T09:06:39.824Z,18.10
2022-12-03T09:09:06.966Z,18.00
2022-12-03T09:11:33.403Z,17.13
2022-12-03T09:13:59.733Z,18.07
2022-12-03T09:16:26.102Z,18.83
2022-12-03T09:18:52.560Z,18.47
2022-12-03T09:21:18.884Z,17.57
2022-12-03T09:23:45.192Z,18.03
2022-12-03T09:26:11.494Z,18.23
2022-12-03T09:28:37.805Z,18.83
2022-12-03T09:31:04.138Z,18.73
2022-12-03T09:33:32.271Z,19.63
2022-12-03T09:35:59.438Z,17.80
2022-12-03T09:38:25.989Z,19.13
2022-12-03T09:40:53.854Z,19.20
2022-12-03T09:43:20.630Z,19.03
2022-12-03T09:45:48.935Z,20.87
2022-12-03T09:48:18.147Z,19.37
2022-12-03T09:50:44.928Z,19.10
2022-12-03T09:53:17.447Z,19.87
2022-12-03T09:55:45.578Z,19.83
2022-12-03T09:58:13.898Z,19.73
2022-12-03T10:00:41.873Z,17.93
2022-12-03T10:03:12.347Z,19.80
2022-12-03T10:05:43.734Z,18.50
2022-12-03T10:08:18.376Z,20.00
2022-12-03T10:10:44.868Z,19.67
2022-12-03T10:13:25.673Z,18.83
2022-12-03T10:15:55.373Z,19.30
2022-12-03T10:18:24.834Z,19.50
2022-12-03T10:20:51.984Z,18.90
2022-12-03T10:23:29.646Z,20.30
2022-12-03T10:26:02.911Z,20.27
2022-12-03T10:28:38.938Z,20.17
2022-12-03T10:31:07.715Z,20.00
2022-12-03T10:33:44.576Z,19.33
2022-12-03T10:36:20.615Z,20.00
2022-12-03T10:39:04.951Z,18.33
2022-12-03T10:41:31.347Z,18.47
2022-12-03T10:44:14.771Z,20.33
2022-12-03T10:46:41.303Z,19.80
2022-12-03T10:49:17.005Z,20.03
2022-12-03T10:51:44.547Z,19.23
2022-12-03T10:54:21.100Z,19.03
2022-12-03T10:56:49.231Z,19.57
2022-12-03T10:59:22.632Z,19.47
2022-12-03T11:01:50.495Z,18.80
2022-12-03T11:04:32.228Z,20.43
2022-12-03T11:06:58.824Z,19.63
2022-12-03T11:09:29.395Z,21.47
2022-12-03T11:11:55.952Z,19.27
2022-12-03T11:14:51.391Z,21.73
2022-12-03T11:18:06.542Z,21.77
2022-12-03T11:20:35.993Z,19.67
2022-12-03T11:23:02.343Z,20.90
2022-12-03T11:25:28.659Z,19.23
2022-12-03T11:28:10.187Z,19.77
2022-12-03T11:30:48.918Z,20.33
2022-12-03T11:33:30.065Z,21.27
2022-12-03T11:36:05.447Z,19.03
2022-12-03T11:38:38.092Z,19.47
2022-12-03T11:41:10.424Z,20.33
2022-12-03T11:43:52.059Z,19.70
2022-12-03T11:46:25.324Z,20.77
2022-12-03T11:48:55.425Z,19.67
2022-12-03T11:51:24.370Z,19.20
2022-12-03T11:53:52.963Z,21.00
2022-12-03T11:56:23.850Z,20.03
2022-12-03T11:58:59.217Z,19.43
2022-12-03T12:01:40.500Z,19.97
2022-12-03T12:04:25.741Z,19.87
2022-12-03T12:06:53.604Z,19.03
2022-12-03T12:09:52.665Z,19.33
2022-12-03T12:12:40.768Z,21.80
2022-12-03T12:15:32.809Z,20.87
2022-12-03T12:18:37.780Z,21.03
2022-12-03T12:21:42.535Z,21.77
2022-12-03T12:24:32.151Z,19.37
2022-12-03T12:27:01.231Z,20.83
2022-12-03T12:29:28.112Z,20.40
2022-12-03T12:32:00.340Z,19.57
2022-12-03T12:34:26.776Z,21.47
2022-12-03T12:36:55.915Z,19.90
2022-12-03T12:39:22.361Z,20.40
2022-12-03T12:41:50.396Z,21.13
2022-12-03T12:44:18.249Z,21.53
2022-12-03T12:46:48.464Z,21.17
2022-12-03T12:49:24.976Z,20.93
2022-12-03T12:51:51.339Z,21.03
2022-12-03T12:54:18.656Z,19.87
2022-12-03T12:56:49.679Z,21.20
2022-12-03T12:59:20.028Z,19.43
2022-12-03T13:01:49.017Z,20.33
2022-12-03T13:04:22.504Z,20.10
2022-12-03T13:06:51.610Z,20.63
2022-12-03T13:09:25.851Z,21.80
2022-12-03T13:12:00.647Z,20.30
2022-12-03T13:14:36.777Z,20.63
2022-12-03T13:17:24.431Z,21.03
2022-12-03T13:20:00.584Z,21.20
2022-12-03T13:22:31.659Z,21.03
2022-12-03T13:25:06.764Z,20.00
2022-12-03T13:27:33.115Z,20.53
2022-12-03T13:30:13.414Z,20.57
2022-12-03T13:32:41.452Z,18.50
2022-12-03T13:35:35.791Z,19.43
2022-12-03T13:38:02.986Z,20.37
2022-12-03T13:40:32.800Z,19.73
2022-12-03T13:42:59.335Z,20.33
2022-12-03T13:45:39.090Z,20.57
2022-12-03T13:48:24.733Z,20.27
2022-12-03T13:50:53.159Z,21.37
2022-12-03T13:53:29.110Z,21.37
2022-12-03T13:56:03.179Z,21.23
2022-12-03T13:58:29.558Z,21.73
2022-12-03T14:00:56.037Z,19.60
2022-12-03T14:03:23.269Z,20.23
2022-12-03T14:05:49.584Z,20.03
2022-12-03T14:08:15.951Z,20.47
2022-12-03T14:10:42.319Z,21.10
2022-12-03T14:13:08.707Z,22.40
2022-12-03T14:15:34.998Z,21.13
2022-12-03T14:18:02.206Z,20.07
2022-12-03T14:20:28.522Z,21.53
2022-12-03T14:22:59.359Z,21.63
2022-12-03T14:25:26.350Z,19.90
2022-12-03T14:27:52.647Z,20.03
2022-12-03T14:30:19.051Z,19.37
2022-12-03T14:32:45.455Z,20.53
2022-12-03T14:35:11.752Z,19.57
2022-12-03T14:37:38.107Z,19.00
2022-12-03T14:40:07.188Z,18.27
2022-12-03T14:42:33.558Z,19.77
2022-12-03T14:45:00.004Z,19.57
2022-12-03T14:47:26.303Z,20.23
2022-12-03T14:49:53.268Z,19.10
2022-12-03T14:52:20.376Z,18.73
2022-12-03T14:54:46.706Z,20.20
2022-12-03T14:57:14.772Z,19.67
2022-12-03T14:59:42.402Z,18.73
2022-12-03T15:02:10.702Z,19.43
2022-12-03T15:04:37.998Z,19.10
2022-12-03T15:07:04.868Z,20.47
2022-12-03T15:09:31.266Z,19.77
2022-12-03T15:11:57.601Z,19.57
2022-12-03T15:14:24.116Z,20.47
2022-12-03T15:16:50.584Z,19.50
2022-12-03T15:19:16.976Z,20.40
2022-12-03T15:21:43.337Z,19.93
2022-12-03T15:24:10.410Z,20.40
2022-12-03T15:26:37.023Z,20.87
2022-12-03T15:29:03.366Z,19.87
2022-12-03T15:31:29.757Z,18.00
2022-12-03T15:33:56.078Z,20.50
2022-12-03T15:36:22.440Z,20.47
2022-12-03T15:38:48.833Z,21.10
2022-12-03T15:41:21.522Z,19.50
2022-12-03T15:43:48.553Z,19.10
2022-12-03T15:46:14.946Z,19.07
2022-12-03T15:48:41.424Z,19.53
2022-12-03T15:51:07.955Z,19.07
2022-12-03T15:53:34.283Z,20.07
2022-12-03T15:56:00.595Z,20.47
2022-12-03T15:58:26.902Z,20.43
2022-12-03T16:00:53.199Z,20.63
2022-12-03T16:03:19.652Z,19.67
2022-12-03T16:05:46.068Z,20.00
2022-12-03T16:08:12.470Z,20.13
2022-12-03T16:10:39.439Z,21.67
2022-12-03T16:13:05.806Z,20.13
2022-12-03T16:15:32.181Z,20.97
2022-12-03T16:17:58.548Z,19.07
2022-12-03T16:20:24.851Z,18.40
2022-12-03T16:22:52.064Z,19.13
2022-12-03T16:25:18.574Z,19.83
2022-12-03T16:27:44.873Z,19.10
2022-12-03T16:30:11.661Z,19.60
2022-12-03T16:32:38.043Z,18.90
2022-12-03T16:35:04.630Z,18.73
2022-12-03T16:37:31.146Z,19.90
2022-12-03T16:39:57.542Z,20.60
2022-12-03T16:42:24.357Z,20.07
2022-12-03T16:45:02.822Z,18.47
2022-12-03T16:47:33.578Z,19.43
2022-12-03T16:50:02.295Z,21.00
2022-12-03T16:52:28.756Z,18.17
2022-12-03T16:54:55.074Z,20.03
2022-12-03T16:57:21.619Z,20.17
2022-12-03T16:59:47.936Z,19.80
2022-12-03T17:02:14.428Z,20.53
2022-12-03T17:04:40.952Z,19.23
2022-12-03T17:07:07.264Z,19.77
2022-12-03T17:09:33.569Z,18.23
2022-12-03T17:11:59.938Z,20.63
2022-12-03T17:14:31.423Z,19.40
2022-12-03T17:16:59.496Z,20.97
2022-12-03T17:19:25.815Z,21.23
2022-12-03T17:21:53.866Z,19.40
2022-12-03T17:24:21.225Z,19.97
2022-12-03T17:26:47.532Z,20.07
2022-12-03T17:29:14.154Z,21.97
2022-12-03T17:31:42.620Z,19.73
2022-12-03T17:34:09.718Z,19.47
2022-12-03T17:36:36.060Z,19.53
2022-12-03T17:39:02.618Z,20.23
2022-12-03T17:41:28.975Z,20.97
2022-12-03T17:43:55.337Z,21.50
2022-12-03T17:46:21.754Z,22.03
2022-12-03T17:48:48.104Z,21.00
2022-12-03T17:51:14.557Z,22.47
2022-12-03T17:53:41.659Z,20.87
2022-12-03T17:56:08.203Z,20.07
2022-12-03T17:58:34.811Z,21.17
2022-12-03T18:01:03.063Z,19.93
2022-12-03T18:03:32.742Z,20.40
2022-12-03T18:05:59.151Z,20.83
2022-12-03T18:08:25.463Z,19.83
2022-12-03T18:10:51.838Z,21.33
2022-12-03T18:13:18.196Z,21.27
2022-12-03T18:15:44.698Z,20.90
2022-12-03T18:18:11.450Z,21.60
2022-12-03T18:20:38.049Z,22.53
2022-12-03T18:23:05.037Z,21.93
2022-12-03T18:25:31.617Z,21.47
2022-12-03T18:27:58.163Z,20.57
2022-12-03T18:30:24.560Z,21.07
2022-12-03T18:32:50.907Z,22.53
2022-12-03T18:35:17.926Z,22.00
2022-12-03T18:37:44.309Z,19.83
2022-12-03T18:40:17.845Z,20.17
2022-12-03T18:42:44.292Z,19.97
2022-12-03T18:45:11.895Z,21.83
2022-12-03T18:47:38.833Z,20.43
2022-12-03T18:50:06.319Z,20.57
2022-12-03T18:52:32.815Z,20.27
2022-12-03T18:54:59.116Z,20.57
2022-12-03T18:57:25.440Z,21.07
2022-12-03T18:59:52.003Z,22.00
2022-12-03T19:03:01.915Z,21.27
2022-12-03T19:05:10.026Z,22.63
2022-12-03T19:07:36.871Z,19.43
2022-12-03T19:10:04.469Z,21.33
2022-12-03T19:12:31.113Z,23.10
2022-12-03T19:14:57.463Z,22.67
2022-12-03T19:17:23.920Z,22.37
2022-12-03T19:19:50.225Z,22.50
2022-12-03T19:22:16.571Z,22.10
2022-12-03T19:24:43.589Z,22.33
2022-12-03T19:27:09.995Z,22.33
2022-12-03T19:29:36.310Z,22.53
2022-12-03T19:32:02.731Z,23.53
2022-12-03T19:34:29.797Z,22.77
2022-12-03T19:36:56.239Z,21.60
2022-12-03T19:39:22.572Z,23.97
2022-12-03T19:41:48.937Z,22.43
2022-12-03T19:44:17.365Z,20.97
2022-12-03T19:46:44.142Z,22.77
2022-12-03T19:49:11.320Z,22.90
2022-12-03T19:51:38.039Z,23.37
2022-12-03T19:54:06.332Z,22.37
2022-12-03T19:56:32.756Z,23.47
2022-12-03T19:58:59.106Z,23.43
2022-12-03T20:01:28.333Z,23.87
2022-12-03T20:03:57.300Z,23.67
2022-12-03T20:06:27.367Z,24.37
2022-12-03T20:09:02.119Z,23.13
2022-12-03T20:11:31.179Z,22.37
2022-12-03T20:14:03.265Z,24.50
2022-12-03T20:16:30.233Z,24.13
2022-12-03T20:18:59.192Z,24.27
2022-12-03T20:21:25.986Z,22.03
2022-12-03T20:23:52.972Z,23.83
2022-12-03T20:26:20.960Z,23.10
2022-12-03T20:28:50.180Z,23.07
2022-12-03T20:31:19.079Z,22.83
2022-12-03T20:33:48.295Z,23.17
2022-12-03T20:36:16.376Z,23.17
2022-12-03T20:38:44.875Z,24.03
2022-12-03T20:41:14.528Z,23.30
2022-12-03T20:43:41.118Z,23.23
2022-12-03T20:46:19.501Z,23.67
2022-12-03T20:48:46.249Z,22.80
2022-12-03T20:51:18.290Z,23.23
2022-12-03T20:53:45.316Z,23.33
2022-12-03T20:56:20.386Z,23.93
2022-12-03T20:58:48.849Z,24.10
2022-12-03T21:01:18.537Z,23.43
2022-12-03T21:03:49.484Z,22.07
2022-12-03T21:06:16.592Z,25.23
2022-12-03T21:08:43.705Z,24.73
2022-12-03T21:11:15.782Z,24.97
2022-12-03T21:13:43.790Z,23.77
2022-12-03T21:16:14.888Z,25.63
2022-12-03T21:18:42.383Z,23.70
2022-12-03T21:21:11.622Z,23.57
2022-12-03T21:23:38.034Z,24.97
2022-12-03T21:26:12.730Z,25.33
2022-12-03T21:28:41.065Z,23.70
2022-12-03T21:31:09.804Z,24.17
2022-12-03T21:33:37.134Z,25.10
2022-12-03T21:36:04.841Z,24.27
2022-12-03T21:38:32.145Z,25.07
2022-12-03T21:40:59.224Z,23.97
2022-12-03T21:43:25.773Z,24.87
2022-12-03T21:45:52.496Z,24.10
2022-12-03T21:48:20.137Z,24.00
2022-12-03T21:50:59.261Z,25.53
2022-12-03T21:53:25.938Z,23.83
2022-12-03T21:55:52.281Z,25.77
2022-12-03T21:58:18.617Z,23.37
2022-12-03T22:00:44.938Z,23.93
2022-12-03T22:03:11.301Z,23.80
2022-12-03T22:05:38.442Z,24.83
2022-12-03T22:08:05.142Z,24.57
2022-12-03T22:10:31.512Z,23.80
2022-12-03T22:12:57.818Z,24.57
2022-12-03T22:15:24.152Z,24.60
2022-12-03T22:17:50.512Z,22.10
2022-12-03T22:20:16.845Z,24.87
2022-12-03T22:22:43.234Z,23.30
2022-12-03T22:25:09.827Z,24.63
2022-12-03T22:27:36.156Z,25.53
2022-12-03T22:30:03.714Z,23.63
2022-12-03T22:32:30.068Z,24.37
2022-12-03T22:34:56.427Z,24.30
2022-12-03T22:37:22.816Z,23.87
2022-12-03T22:39:49.131Z,22.63
2022-12-03T22:42:15.454Z,24.07
2022-12-03T22:44:41.967Z,24.63
2022-12-03T22:47:08.381Z,24.17
2022-12-03T22:49:34.836Z,24.63
2022-12-03T22:52:01.169Z,24.87
2022-12-03T22:54:27.511Z,25.23
2022-12-03T22:56:53.819Z,25.60
2022-12-03T22:59:20.128Z,23.13
2022-12-03T23:01:47.265Z,22.73
2022-12-03T23:04:13.620Z,25.70
2022-12-03T23:06:40.120Z,24.43
2022-12-03T23:09:07.980Z,24.23
2022-12-03T23:11:34.713Z,26.53
2022-12-03T23:14:01.410Z,24.07
2022-12-03T23:16:30.153Z,25.23
2022-12-03T23:19:01.647Z,23.70
2022-12-03T23:21:30.905Z,23.77
2022-12-03T23:24:01.915Z,24.10
2022-12-03T23:26:28.854Z,24.00
2022-12-03T23:28:56.319Z,23.90
2022-12-03T23:31:26.157Z,24.90
2022-12-03T23:33:53.461Z,25.33
2022-12-03T23:36:20.705Z,24.53
2022-12-03T23:38:47.116Z,25.40
2022-12-03T23:41:16.176Z,24.63
2022-12-03T23:43:42.812Z,23.97
2022-12-03T23:46:15.471Z,24.90
2022-12-03T23:48:42.231Z,24.80
2022-12-03T23:51:14.242Z,24.70
2022-12-03T23:53:41.030Z,24.87
2022-12-03T23:56:12.886Z,25.67
2022-12-03T23:58:39.324Z,25.33
